Vancouver, WA (98660)

4:09 AM PST on January 18, 2017 (GMT -0800)
Lincoln | | Change Station

Elev 223 ft 45.65 °N, 122.67 °W | Updated 22 seconds ago

Light Rain
Light Rain Mist
37.7 °F
Feels Like 38 °F
N
2.0
Wind Variable Wind from South

Today
High -- | Low -- °F
--% Chance of Precip.
Yesterday
High -- | Low -- °F
Precip. -- in
Pressure 29.49 in
Visibility 2.5 miles
Clouds Few 900 ft
Scattered Clouds 2300 ft
Overcast 4500 ft
Windchill 38 °F
Dew Point 37 °F
Humidity 98%
Rainfall 0.17 in
Snow Depth Not available.
7:45 AM 4:57 PM
Waning Gibbous, 64% visible
SPECI KVUO 181201Z AUTO 12011KT 2 1/2SM -RA BR FEW009 SCT023 OVC045 02/01 A2949 RMK AO2 P0001 T00170011
Pressure 29.49 in
Visibility 2.5 miles
Clouds Few 900 ft
Scattered Clouds 2300 ft
Overcast 4500 ft
Windchill 38 °F
Dew Point 37 °F
Humidity 98%
Rainfall 0.17 in
Snow Depth Not available.
7:45 AM 4:57 PM
Waning Gibbous, 64% visible
SPECI KVUO 181201Z AUTO 12011KT 2 1/2SM -RA BR FEW009 SCT023 OVC045 02/01 A2949 RMK AO2 P0001 T00170011

Get Your Daily Forecast Email!

Thanks for signing up!

Be on the lookout for a verification email in your inbox.

You'll start receiving the daily forecast at 8 AM.

×

10-Day Weather Forecast

Almanac

Astronomy

Jan. 18, 2017 Rise Set
Actual Time
Civil Twilight
Nautical Twilight
Astronomical Twilight
Moon
Length of Visible Light
Length of Day
Tomorrow will be .
, % of the Moon is Illuminated

Today's Extremes

State Highs State Lows

Community

WunderPhotos

Upload Photos

1,962,540 photos uploaded!

WunderBlog® & News

Nearby

Air Quality

  Air Quality AQ Index Pollutant
Not available.

Snow Depth

Station Depth Elevation

Earthquake Activity

City Distance Mag. Time & Date
Minimum magnitude displayed is 2.5.

Coastal Water Temperatures

Place Temperature

Stations

Nearby Weather Stations

Station Location Temp. Windchill Dew Point Humidity Wind Precip. Elev Updated Type
                   

Watches & Warnings

Small Craft for Rough Bar Advisory
Issued: 2:26 AM PST Jan. 18, 2017 – National Weather Service

... Small Craft Advisory for rough bar now in effect until 10 am
PST Thursday...



* in the Main Channel...

* general seas... 18 ft to 20 ft slowly subsiding today and tonight
to 12 to 14 ft by early Thursday.

* First Ebb... around 915 am Wednesday. Seas near 21 ft with
breakers.

* Second Ebb... around 915 PM Wednesday. Seas near 17 ft with
breakers.





Precautionary/preparedness actions...

A Small Craft Advisory for rough bar means that wave conditions
are expected to be hazardous to small craft in or near Harbor
entrances.




Http://www.Weather.Gov/Portland